Time;durP1;ratioP1;P1;durP2;ratioP2;P2;SDS_P1;SDS_P2;PMS_P1;PMS_P2;Temp;Humidity;BMP_temperature;BMP_pressure;BME280_temperature;BME280_humidity;BME280_pressure;Samples;Min_cycle;Max_cycle;Signal;HPM_P1;HPM_P2
2022/10/31 00:01:27;;;;;;;23.08;14.55;;;24.20;57.30;;;;;;6173476;28;82951;-68
2022/10/31 00:04:27;;;;;;;24.77;14.90;;;24.20;57.10;;;;;;6193617;28;83234;-68
2022/10/31 00:07:28;;;;;;;26.13;14.00;;;24.20;57.10;;;;;;6174732;28;83649;-67
2022/10/31 00:10:28;;;;;;;24.60;13.95;;;24.20;57.00;;;;;;6197767;28;83727;-65
2022/10/31 00:13:29;;;;;;;23.52;13.93;;;24.20;56.90;;;;;;6196901;28;89718;-61
2022/10/31 00:16:29;;;;;;;24.60;14.52;;;24.20;56.90;;;;;;6196620;28;83183;-60
2022/10/31 00:19:30;;;;;;;21.25;13.73;;;24.10;56.70;;;;;;6196718;28;84004;-61
2022/10/31 00:22:31;;;;;;;20.50;13.80;;;24.10;56.70;;;;;;6189231;28;83168;-61
2022/10/31 00:25:31;;;;;;;27.23;15.13;;;24.10;56.50;;;;;;6170937;28;83439;-62
2022/10/31 00:28:32;;;;;;;26.10;14.82;;;24.10;56.50;;;;;;6173251;28;83065;-62
2022/10/31 00:31:32;;;;;;;22.65;13.73;;;24.10;56.50;;;;;;6192129;28;83316;-61
2022/10/31 00:34:34;;;;;;;21.48;13.70;;;24.10;56.50;;;;;;6174431;28;83194;-58
2022/10/31 00:37:35;;;;;;;24.17;14.23;;;24.10;56.50;;;;;;6171581;28;84434;-58
2022/10/31 00:40:35;;;;;;;23.50;14.10;;;24.10;56.50;;;;;;6172174;28;83365;-58
2022/10/31 00:43:36;;;;;;;22.25;13.60;;;24.10;56.40;;;;;;6195656;28;83128;-58
2022/10/31 00:46:36;;;;;;;22.92;14.18;;;24.10;56.50;;;;;;6153463;28;86089;-59
2022/10/31 00:49:37;;;;;;;25.40;14.50;;;24.10;56.50;;;;;;6173584;28;83552;-56
2022/10/31 00:52:38;;;;;;;22.05;14.10;;;24.10;56.50;;;;;;6193313;28;85767;-58
2022/10/31 00:55:38;;;;;;;24.25;14.75;;;24.10;56.50;;;;;;6172538;28;90177;-59
2022/10/31 00:58:39;;;;;;;22.83;13.93;;;24.00;56.40;;;;;;6156496;28;86313;-58
2022/10/31 01:01:41;;;;;;;23.30;14.23;;;24.00;56.40;;;;;;6173294;28;84327;-58
2022/10/31 01:04:41;;;;;;;28.77;14.38;;;24.00;56.40;;;;;;6151814;28;86782;-59
2022/10/31 01:07:42;;;;;;;21.67;13.85;;;24.00;56.30;;;;;;6150825;28;85762;-59
2022/10/31 01:10:43;;;;;;;22.08;14.13;;;24.00;56.40;;;;;;6172446;28;83499;-59
2022/10/31 01:13:43;;;;;;;18.45;12.88;;;24.00;56.30;;;;;;6151857;28;88927;-59
2022/10/31 01:16:44;;;;;;;21.08;14.23;;;24.00;56.20;;;;;;6172505;28;84129;-58
2022/10/31 01:19:45;;;;;;;23.48;13.40;;;24.00;56.10;;;;;;6168372;28;84349;-58
2022/10/31 01:22:45;;;;;;;21.45;13.98;;;24.00;56.10;;;;;;6152975;28;83243;-58
2022/10/31 01:25:46;;;;;;;21.38;13.95;;;24.00;56.10;;;;;;6170237;28;83542;-59
2022/10/31 01:28:46;;;;;;;18.92;13.05;;;24.00;56.00;;;;;;6168026;28;83228;-57
2022/10/31 01:31:47;;;;;;;19.67;13.30;;;24.00;56.10;;;;;;6171413;28;82798;-57
2022/10/31 01:34:48;;;;;;;22.15;14.10;;;24.00;55.90;;;;;;6170343;28;86358;-57
2022/10/31 01:37:49;;;;;;;19.63;13.40;;;24.00;55.90;;;;;;6166851;28;83004;-57
2022/10/31 01:40:49;;;;;;;22.45;12.45;;;24.00;56.00;;;;;;6170984;28;82705;-58
2022/10/31 01:43:50;;;;;;;19.75;12.43;;;24.00;55.90;;;;;;6170923;28;83912;-57
2022/10/31 01:46:50;;;;;;;21.52;12.88;;;24.00;55.80;;;;;;6152402;28;87353;-57
2022/10/31 01:49:51;;;;;;;22.90;13.13;;;24.00;55.80;;;;;;6169056;28;85025;-57
2022/10/31 01:52:51;;;;;;;22.95;12.07;;;23.90;55.70;;;;;;6169519;28;86092;-59
2022/10/31 01:55:52;;;;;;;22.50;13.70;;;23.90;55.60;;;;;;6151542;28;83266;-58
2022/10/31 01:58:52;;;;;;;16.95;11.90;;;23.90;55.40;;;;;;6153294;28;85882;-55
2022/10/31 02:01:53;;;;;;;18.25;11.90;;;23.90;55.30;;;;;;6173215;28;84348;-59
2022/10/31 02:04:53;;;;;;;18.55;12.68;;;23.90;55.30;;;;;;6196055;28;86026;-58
2022/10/31 02:07:54;;;;;;;21.63;12.73;;;23.90;55.30;;;;;;6172911;28;85961;-59
2022/10/31 02:11:01;;;;;;;17.33;11.60;;;23.90;55.30;;;;;;6174364;28;85773;-59
2022/10/31 02:14:02;;;;;;;19.90;11.68;;;23.90;55.30;;;;;;6172181;28;84925;-59
2022/10/31 02:17:02;;;;;;;23.67;12.85;;;23.90;55.20;;;;;;6161799;28;85894;-58
2022/10/31 02:20:03;;;;;;;18.67;11.75;;;23.90;55.10;;;;;;6157151;28;85794;-57
2022/10/31 02:23:03;;;;;;;17.60;12.15;;;23.90;55.10;;;;;;6194402;28;84148;-58
2022/10/31 02:26:04;;;;;;;20.17;11.80;;;23.90;55.00;;;;;;6169368;28;83831;-58
2022/10/31 02:29:05;;;;;;;17.27;10.93;;;23.90;55.00;;;;;;6145951;28;85673;-59
2022/10/31 02:32:05;;;;;;;22.73;11.70;;;23.90;55.00;;;;;;6168125;28;86069;-58
2022/10/31 02:35:06;;;;;;;19.10;11.35;;;23.90;54.90;;;;;;6152934;28;85865;-59
2022/10/31 02:38:06;;;;;;;18.83;11.55;;;23.90;54.90;;;;;;6156412;28;85859;-59
2022/10/31 02:41:07;;;;;;;17.05;11.57;;;23.90;54.90;;;;;;6152646;28;86202;-60
2022/10/31 02:44:13;;;;;;;16.58;11.10;;;23.90;54.90;;;;;;6158592;28;86039;-60
2022/10/31 02:47:14;;;;;;;19.23;12.32;;;23.90;54.90;;;;;;6154585;28;86189;-58
2022/10/31 02:50:14;;;;;;;19.85;11.88;;;23.90;54.80;;;;;;6153631;28;84691;-59
2022/10/31 02:53:15;;;;;;;21.13;12.57;;;23.90;54.80;;;;;;6177374;28;83070;-60
2022/10/31 02:56:16;;;;;;;18.55;12.05;;;23.90;54.80;;;;;;6154824;28;85152;-58
2022/10/31 02:59:18;;;;;;;19.60;11.20;;;23.90;54.90;;;;;;6167350;28;84628;-59
2022/10/31 03:02:19;;;;;;;16.90;11.25;;;23.80;54.80;;;;;;6154516;28;83517;-59
2022/10/31 03:05:19;;;;;;;22.63;12.15;;;23.80;54.80;;;;;;6176954;28;83644;-60
2022/10/31 03:08:20;;;;;;;20.08;11.88;;;23.80;54.80;;;;;;6155402;28;84535;-60
2022/10/31 03:11:21;;;;;;;18.58;11.85;;;23.80;54.70;;;;;;6155613;28;85685;-59
2022/10/31 03:14:21;;;;;;;18.13;11.80;;;23.80;54.60;;;;;;6176326;28;83347;-59
2022/10/31 03:17:28;;;;;;;20.67;12.80;;;23.80;54.70;;;;;;6171024;28;86015;-59
2022/10/31 03:20:28;;;;;;;20.92;12.05;;;23.80;54.70;;;;;;6175310;28;83729;-59
2022/10/31 03:23:30;;;;;;;16.73;11.00;;;23.80;54.70;;;;;;6164921;28;84975;-59
2022/10/31 03:26:30;;;;;;;17.40;10.63;;;23.90;54.80;;;;;;6164995;28;86398;-59
2022/10/31 03:29:31;;;;;;;18.42;12.13;;;23.80;55.00;;;;;;6175420;28;86171;-59
2022/10/31 03:32:32;;;;;;;18.05;10.55;;;23.80;55.00;;;;;;6170630;28;84858;-60
2022/10/31 03:35:33;;;;;;;17.13;11.00;;;23.80;55.00;;;;;;6174246;28;86362;-65
2022/10/31 03:38:33;;;;;;;16.08;11.10;;;23.90;54.90;;;;;;6185896;28;85897;-69
2022/10/31 03:41:34;;;;;;;16.98;11.50;;;23.90;54.90;;;;;;6170520;28;83459;-70
2022/10/31 03:44:34;;;;;;;15.88;11.30;;;23.90;54.90;;;;;;6156482;28;85198;-70
2022/10/31 03:47:36;;;;;;;23.30;11.18;;;23.90;54.90;;;;;;6157380;28;86026;-70
2022/10/31 03:50:37;;;;;;;16.20;11.18;;;23.90;54.80;;;;;;6170641;28;87837;-69
2022/10/31 03:53:37;;;;;;;16.23;10.82;;;23.90;54.90;;;;;;6151687;28;85491;-71
2022/10/31 03:56:38;;;;;;;17.25;11.05;;;23.90;54.80;;;;;;6143078;28;88054;-67
2022/10/31 03:59:38;;;;;;;17.67;11.68;;;23.90;54.90;;;;;;6195084;28;83412;-68
2022/10/31 04:02:39;;;;;;;16.38;10.98;;;23.90;54.80;;;;;;6172009;28;86065;-67
2022/10/31 04:05:39;;;;;;;19.17;11.23;;;24.00;54.80;;;;;;6174402;28;83682;-66
2022/10/31 04:08:41;;;;;;;18.00;10.82;;;24.00;54.80;;;;;;6155984;28;85958;-67
2022/10/31 04:11:43;;;;;;;20.63;11.57;;;24.00;54.80;;;;;;6182272;28;85999;-67
2022/10/31 04:15:10;;;;;;;17.73;10.32;;;24.00;54.70;;;;;;6143622;28;83279;-59
2022/10/31 04:18:13;;;;;;;15.60;11.15;;;24.00;54.70;;;;;;6154942;28;86299;-58
2022/10/31 04:21:15;;;;;;;15.55;11.10;;;24.00;54.50;;;;;;6143250;28;85085;-58
2022/10/31 04:24:16;;;;;;;15.70;11.02;;;24.00;54.60;;;;;;6162998;28;85996;-59
2022/10/31 04:27:17;;;;;;;19.05;10.68;;;23.90;54.50;;;;;;6155648;28;86432;-59
2022/10/31 04:30:17;;;;;;;20.13;11.25;;;24.00;54.40;;;;;;6169247;28;84353;-57
2022/10/31 04:33:18;;;;;;;17.75;11.50;;;24.00;54.30;;;;;;6168109;28;86475;-59
2022/10/31 04:36:20;;;;;;;18.05;11.98;;;24.00;54.20;;;;;;6156501;28;83936;-59
2022/10/31 04:39:21;;;;;;;21.42;12.25;;;24.00;54.10;;;;;;6140095;28;85924;-58
2022/10/31 04:42:33;;;;;;;21.17;12.25;;;24.00;54.00;;;;;;6183669;28;84833;-59
2022/10/31 04:45:37;;;;;;;19.33;11.23;;;24.00;53.90;;;;;;6153826;28;85950;-59
2022/10/31 04:48:37;;;;;;;18.85;10.73;;;24.00;53.80;;;;;;6181797;28;85929;-59
2022/10/31 04:51:40;;;;;;;17.73;11.93;;;24.00;53.70;;;;;;6164981;28;86756;-60
2022/10/31 04:54:43;;;;;;;19.17;10.88;;;24.10;53.60;;;;;;6165477;28;86086;-59
2022/10/31 04:58:19;;;;;;;16.42;10.50;;;24.10;53.60;;;;;;6068843;28;83137;-60
2022/10/31 05:01:19;;;;;;;21.08;11.65;;;24.10;53.60;;;;;;6169158;28;87346;-58
2022/10/31 05:04:20;;;;;;;22.05;12.50;;;24.10;53.40;;;;;;6173172;28;84240;-60
2022/10/31 05:07:21;;;;;;;21.50;12.60;;;24.10;53.60;;;;;;6169956;28;84692;-61
2022/10/31 05:10:21;;;;;;;25.35;12.07;;;24.10;53.40;;;;;;6150609;28;86116;-60
2022/10/31 05:13:23;;;;;;;15.88;10.55;;;24.10;53.70;;;;;;6153014;28;91055;-62
2022/10/31 05:16:59;;;;;;;17.58;11.38;;;24.20;53.90;;;;;;6185228;28;82977;-57
2022/10/31 05:20:18;;;;;;;17.85;10.00;;;24.30;54.10;;;;;;6162108;28;84904;-59
2022/10/31 05:23:41;;;;;;;15.65;9.93;;;24.30;54.50;;;;;;6144903;28;87602;-58
2022/10/31 05:26:42;;;;;;;17.50;9.07;;;24.30;54.60;;;;;;6207149;28;84059;-58
2022/10/31 05:29:43;;;;;;;14.48;8.75;;;24.40;55.00;;;;;;6156735;28;83748;-58
2022/10/31 05:32:44;;;;;;;15.32;8.27;;;24.40;54.90;;;;;;6180119;28;82904;-57
2022/10/31 05:36:13;;;;;;;14.95;9.15;;;24.40;54.80;;;;;;6177725;28;82542;-56
2022/10/31 05:39:25;;;;;;;20.83;9.05;;;24.50;54.80;;;;;;6160649;28;81886;-59
2022/10/31 05:42:29;;;;;;;13.75;9.55;;;24.50;54.70;;;;;;6153645;28;82140;-56
2022/10/31 05:45:31;;;;;;;14.20;9.20;;;24.50;54.90;;;;;;6171594;28;87587;-59
2022/10/31 05:48:35;;;;;;;18.08;9.13;;;24.60;54.70;;;;;;6185637;28;83104;-58
2022/10/31 05:51:55;;;;;;;22.58;10.13;;;24.60;54.80;;;;;;6175224;28;81833;-57
2022/10/31 05:55:04;;;;;;;15.45;9.68;;;24.60;54.90;;;;;;6188326;28;85303;-57
2022/10/31 05:58:05;;;;;;;16.10;10.70;;;24.60;55.10;;;;;;6187753;28;84742;-56
2022/10/31 06:01:07;;;;;;;19.13;11.05;;;24.60;55.10;;;;;;6171916;28;87597;-52
2022/10/31 06:04:08;;;;;;;16.45;9.77;;;24.60;55.00;;;;;;6196359;28;86234;-62
2022/10/31 06:07:10;;;;;;;16.40;9.60;;;24.70;55.00;;;;;;6196051;28;86244;-59
2022/10/31 06:10:11;;;;;;;19.05;10.10;;;24.70;55.10;;;;;;6200329;28;86798;-64
2022/10/31 06:13:12;;;;;;;13.73;9.30;;;24.70;55.30;;;;;;6193794;28;83076;-72
2022/10/31 06:16:19;;;;;;;15.63;10.35;;;24.70;55.50;;;;;;6196788;28;90046;-63
2022/10/31 06:19:20;;;;;;;18.23;10.25;;;24.70;55.90;;;;;;6187784;28;88212;-62
2022/10/31 06:22:20;;;;;;;15.95;9.75;;;24.80;55.40;;;;;;6166944;28;83616;-60
2022/10/31 06:25:21;;;;;;;17.92;10.48;;;24.90;55.10;;;;;;6197136;28;83460;-66
2022/10/31 06:28:23;;;;;;;19.83;10.48;;;24.80;54.90;;;;;;6178548;28;84910;-63
2022/10/31 06:31:30;;;;;;;19.00;9.57;;;24.90;54.80;;;;;;6177529;28;90049;-69
2022/10/31 06:34:31;;;;;;;23.33;10.15;;;24.90;54.60;;;;;;6176500;28;85790;-68
2022/10/31 06:37:32;;;;;;;15.65;8.82;;;24.90;54.30;;;;;;6183571;28;84439;-69
2022/10/31 06:40:38;;;;;;;15.90;10.43;;;25.00;54.20;;;;;;6170263;28;85136;-72
2022/10/31 06:43:56;;;;;;;17.60;10.70;;;25.00;53.70;;;;;;6164865;28;83424;-72
2022/10/31 06:47:22;;;;;;;19.25;9.75;;;25.00;53.30;;;;;;6161095;28;84377;-72
2022/10/31 06:50:44;;;;;;;15.48;9.88;;;25.00;53.20;;;;;;6163708;28;84149;-73
2022/10/31 06:53:47;;;;;;;17.65;9.55;;;25.00;52.90;;;;;;6180375;28;82242;-70
2022/10/31 06:56:50;;;;;;;15.18;9.52;;;25.00;52.60;;;;;;6166630;28;82586;-73
2022/10/31 06:59:50;;;;;;;15.93;9.82;;;25.10;52.40;;;;;;6177668;28;80625;-75
2022/10/31 07:03:15;;;;;;;14.98;9.40;;;25.10;52.20;;;;;;6172168;28;80973;-71
2022/10/31 07:06:15;;;;;;;15.18;9.52;;;25.10;51.90;;;;;;6177899;28;83830;-69
2022/10/31 07:09:16;;;;;;;22.05;10.52;;;25.10;51.70;;;;;;6177486;28;82951;-71
2022/10/31 07:12:17;;;;;;;16.73;9.73;;;25.10;51.60;;;;;;6174784;28;83568;-71
2022/10/31 07:15:26;;;;;;;15.38;9.90;;;25.20;51.50;;;;;;6185585;28;83162;-71
2022/10/31 07:18:27;;;;;;;17.05;10.05;;;25.20;51.40;;;;;;6151936;28;82374;-60
2022/10/31 07:21:27;;;;;;;15.90;10.55;;;25.20;51.20;;;;;;6183723;28;83088;-60
2022/10/31 07:24:28;;;;;;;14.60;9.02;;;25.20;51.20;;;;;;6147451;28;93060;-59
2022/10/31 07:27:47;;;;;;;14.63;9.80;;;25.30;51.10;;;;;;6182705;28;85065;-60
2022/10/31 07:30:47;;;;;;;17.15;9.77;;;25.30;51.10;;;;;;6160552;28;85163;-59
2022/10/31 07:33:48;;;;;;;14.60;9.10;;;25.40;51.00;;;;;;6157468;28;82925;-60
2022/10/31 07:37:12;;;;;;;14.35;9.65;;;25.30;50.90;;;;;;6172226;28;82821;-70
2022/10/31 07:40:12;;;;;;;16.08;9.80;;;25.40;50.90;;;;;;6181283;28;83828;-71
2022/10/31 07:43:13;;;;;;;16.95;10.60;;;25.40;50.90;;;;;;6189761;28;83173;-73
2022/10/31 07:46:31;;;;;;;18.48;11.02;;;25.40;50.50;;;;;;6158465;28;88508;-71
2022/10/31 07:49:51;;;;;;;21.13;10.57;;;25.40;51.00;;;;;;6145123;28;83039;-71
2022/10/31 07:53:10;;;;;;;17.05;10.15;;;25.30;50.50;;;;;;6186159;28;83169;-72
2022/10/31 07:56:28;;;;;;;19.17;11.25;;;25.40;50.20;;;;;;6161179;28;88269;-71
2022/10/31 07:59:29;;;;;;;20.05;11.70;;;25.30;49.60;;;;;;6168469;28;88857;-69
2022/10/31 08:02:29;;;;;;;22.98;11.75;;;25.20;49.50;;;;;;6175433;28;85990;-71
2022/10/31 08:05:49;;;;;;;19.35;12.25;;;25.10;49.40;;;;;;6165601;28;87634;-69
2022/10/31 08:09:06;;;;;;;21.15;11.65;;;25.10;49.70;;;;;;6148400;28;84771;-69
2022/10/31 08:12:08;;;;;;;19.52;11.43;;;25.10;49.60;;;;;;6165041;28;86255;-68
2022/10/31 08:15:09;;;;;;;28.05;11.38;;;25.10;49.30;;;;;;6143634;28;85991;-68
2022/10/31 08:18:10;;;;;;;18.50;10.85;;;25.10;49.50;;;;;;6157631;28;85741;-69
2022/10/31 08:21:11;;;;;;;21.70;11.63;;;25.20;49.10;;;;;;6187194;28;86091;-72
2022/10/31 08:24:11;;;;;;;20.83;12.50;;;25.30;49.20;;;;;;6164974;28;85388;-69
2022/10/31 08:27:13;;;;;;;19.85;11.68;;;25.30;48.10;;;;;;6171598;28;90716;-66
2022/10/31 08:30:13;;;;;;;18.67;11.43;;;25.30;49.10;;;;;;6196732;28;88633;-72
2022/10/31 08:33:22;;;;;;;18.17;10.68;;;25.30;49.00;;;;;;6203073;28;83166;-72
2022/10/31 08:36:48;;;;;;;19.73;11.48;;;25.00;49.40;;;;;;6180566;28;83434;-73
2022/10/31 08:39:56;;;;;;;26.52;11.52;;;25.10;49.10;;;;;;6167825;28;85502;-70
2022/10/31 08:42:57;;;;;;;20.08;11.27;;;25.10;49.10;;;;;;6170280;28;85586;-70
2022/10/31 08:45:57;;;;;;;18.95;10.70;;;25.10;49.10;;;;;;6156019;28;85864;-70
2022/10/31 08:49:02;;;;;;;22.30;10.80;;;25.20;49.50;;;;;;6173741;28;85887;-67
2022/10/31 08:52:03;;;;;;;41.22;11.73;;;25.30;49.20;;;;;;6185595;28;86024;-65
2022/10/31 08:55:07;;;;;;;67.57;15.00;;;25.40;49.30;;;;;;6189536;28;85859;-71
2022/10/31 08:58:27;;;;;;;47.10;13.60;;;25.40;49.30;;;;;;6194262;28;87166;-66
2022/10/31 09:01:32;;;;;;;44.00;13.52;;;25.50;49.20;;;;;;6176044;28;85736;-67
2022/10/31 09:04:33;;;;;;;26.27;10.43;;;25.50;49.00;;;;;;6189343;28;86342;-70
2022/10/31 09:07:34;;;;;;;32.55;10.30;;;25.60;48.40;;;;;;6189225;28;85688;-60
2022/10/31 09:10:35;;;;;;;35.83;12.98;;;25.60;49.00;;;;;;6185903;28;87096;-60
2022/10/31 09:13:37;;;;;;;33.35;11.98;;;25.60;48.50;;;;;;6192594;28;85245;-59
2022/10/31 09:16:58;;;;;;;72.80;18.05;;;25.60;48.30;;;;;;6179509;28;88193;-60
2022/10/31 09:20:06;;;;;;;44.75;11.48;;;25.70;48.20;;;;;;6206175;28;85054;-60
2022/10/31 09:23:09;;;;;;;71.82;14.10;;;25.60;47.60;;;;;;6189756;28;88598;-60
2022/10/31 09:26:11;;;;;;;75.22;15.55;;;25.60;47.60;;;;;;6172294;28;84759;-64
2022/10/31 09:29:16;;;;;;;37.47;11.52;;;25.70;47.80;;;;;;6178847;28;86076;-64
2022/10/31 09:32:18;;;;;;;51.03;12.38;;;25.70;47.30;;;;;;6182730;28;86100;-65
2022/10/31 09:35:20;;;;;;;40.47;11.80;;;25.80;47.60;;;;;;6190415;28;85830;-59
2022/10/31 09:38:20;;;;;;;24.88;10.40;;;25.90;47.60;;;;;;6170960;28;84671;-59
2022/10/31 09:41:21;;;;;;;23.88;10.07;;;25.90;47.50;;;;;;6195313;28;83435;-58
2022/10/31 09:44:21;;;;;;;22.70;9.20;;;26.00;47.60;;;;;;6187537;28;85690;-62
2022/10/31 09:47:24;;;;;;;28.13;9.95;;;26.00;47.70;;;;;;6184642;28;85815;-62
2022/10/31 09:50:42;;;;;;;27.08;9.60;;;26.00;47.40;;;;;;6182913;28;83188;-61
2022/10/31 09:54:02;;;;;;;24.92;8.95;;;26.10;47.40;;;;;;6214222;28;81898;-60
2022/10/31 09:57:03;;;;;;;25.48;8.25;;;26.10;46.90;;;;;;6198607;28;83488;-58
2022/10/31 10:00:05;;;;;;;20.75;8.75;;;26.10;47.00;;;;;;6175272;28;81819;-60
2022/10/31 10:03:14;;;;;;;22.58;7.85;;;26.20;47.10;;;;;;6191454;28;80734;-72
2022/10/31 10:06:17;;;;;;;20.30;8.50;;;26.20;46.90;;;;;;6187191;28;82681;-64
2022/10/31 10:09:50;;;;;;;17.55;8.00;;;26.20;46.90;;;;;;6192887;28;86556;-71
2022/10/31 10:13:09;;;;;;;14.80;8.15;;;26.30;46.70;;;;;;6189038;28;86144;-72
2022/10/31 10:16:10;;;;;;;15.73;7.95;;;26.40;46.70;;;;;;6181849;28;81180;-72
2022/10/31 10:19:11;;;;;;;22.13;8.43;;;26.40;46.60;;;;;;6190741;28;81178;-61
2022/10/31 10:22:12;;;;;;;14.68;7.68;;;26.40;46.50;;;;;;6186294;28;81557;-64
2022/10/31 10:25:12;;;;;;;15.13;7.43;;;26.40;46.60;;;;;;6209097;28;80105;-68
2022/10/31 10:28:13;;;;;;;18.52;8.02;;;26.40;47.00;;;;;;6197293;28;82171;-65
2022/10/31 10:31:13;;;;;;;19.25;7.80;;;26.50;46.70;;;;;;6199859;28;84827;-69
2022/10/31 10:34:14;;;;;;;22.90;7.85;;;26.50;47.00;;;;;;6190815;28;80768;-74
2022/10/31 10:37:14;;;;;;;17.40;7.75;;;26.60;46.60;;;;;;6175881;28;80572;-74
2022/10/31 10:40:15;;;;;;;19.60;7.43;;;26.70;46.50;;;;;;6174776;28;80957;-68
2022/10/31 10:43:18;;;;;;;17.50;6.93;;;26.70;46.60;;;;;;6173211;28;80078;-66
2022/10/31 10:49:38;;;;;;;15.38;6.85;;;26.80;46.30;;;;;;6186920;28;85964;-66
2022/10/31 10:52:39;;;;;;;14.32;7.25;;;26.80;46.10;;;;;;6163394;28;80595;-65
2022/10/31 10:55:39;;;;;;;20.02;7.97;;;26.80;45.60;;;;;;6180746;28;80118;-66
2022/10/31 10:58:41;;;;;;;12.65;7.30;;;26.80;45.60;;;;;;6178168;28;81483;-67
2022/10/31 11:01:42;;;;;;;19.42;7.97;;;26.80;45.70;;;;;;6180813;28;81676;-65
2022/10/31 11:04:42;;;;;;;20.48;7.60;;;26.80;45.60;;;;;;6188913;28;81239;-69
2022/10/31 11:07:43;;;;;;;16.45;7.70;;;26.80;45.80;;;;;;6186467;28;80722;-67
2022/10/31 11:10:43;;;;;;;19.15;7.80;;;26.80;45.20;;;;;;6159322;28;82597;-65
2022/10/31 11:13:44;;;;;;;18.58;7.15;;;26.90;45.40;;;;;;6173999;28;80593;-67
2022/10/31 11:16:44;;;;;;;18.17;7.90;;;26.90;45.40;;;;;;6201035;28;81300;-71
2022/10/31 11:19:45;;;;;;;27.45;8.48;;;26.90;45.20;;;;;;6181220;28;80612;-66
2022/10/31 11:22:45;;;;;;;21.13;7.13;;;26.90;45.10;;;;;;6190685;28;80911;-67
2022/10/31 11:25:46;;;;;;;37.63;7.88;;;26.90;44.90;;;;;;6173746;28;81182;-72
2022/10/31 11:28:46;;;;;;;22.00;8.60;;;26.90;45.00;;;;;;6173749;28;80416;-69
2022/10/31 11:31:48;;;;;;;26.73;7.93;;;27.00;45.00;;;;;;6167147;28;83673;-68
2022/10/31 11:34:50;;;;;;;24.65;7.55;;;26.90;44.80;;;;;;6194245;28;82527;-70
2022/10/31 11:37:50;;;;;;;22.52;8.40;;;26.90;44.70;;;;;;6203573;28;81339;-66
2022/10/31 11:40:51;;;;;;;19.55;7.05;;;27.00;44.90;;;;;;6198811;28;83040;-64
2022/10/31 11:43:51;;;;;;;18.27;7.18;;;27.10;45.20;;;;;;6193196;28;81047;-68
2022/10/31 11:46:52;;;;;;;16.80;7.82;;;27.20;45.30;;;;;;6183867;28;83696;-65
2022/10/31 11:49:52;;;;;;;15.15;6.30;;;27.20;45.10;;;;;;6172820;28;81745;-65
2022/10/31 11:52:53;;;;;;;15.20;6.65;;;27.30;45.30;;;;;;6178383;28;83980;-67
2022/10/31 11:55:53;;;;;;;20.40;7.00;;;27.30;45.50;;;;;;6197652;28;80768;-66
2022/10/31 11:58:54;;;;;;;19.42;6.95;;;27.30;45.30;;;;;;6177390;28;80789;-63
2022/10/31 12:01:54;;;;;;;19.35;8.20;;;27.30;45.40;;;;;;6189139;28;80303;-65
2022/10/31 12:04:55;;;;;;;14.15;6.20;;;27.30;45.60;;;;;;6192444;28;82968;-67
2022/10/31 12:07:55;;;;;;;15.73;7.43;;;27.40;45.80;;;;;;6178223;28;80324;-63
2022/10/31 12:10:56;;;;;;;19.40;7.82;;;27.30;45.60;;;;;;6178102;28;80771;-61
2022/10/31 12:13:56;;;;;;;25.90;6.47;;;27.40;45.60;;;;;;6176420;28;87112;-62
2022/10/31 12:16:57;;;;;;;15.10;6.03;;;27.40;45.90;;;;;;6188187;28;83542;-63
2022/10/31 12:19:59;;;;;;;15.43;7.30;;;27.30;46.00;;;;;;6176141;28;80636;-64
2022/10/31 12:22:59;;;;;;;14.80;6.70;;;27.30;46.40;;;;;;6168021;28;87113;-65
2022/10/31 12:26:00;;;;;;;13.32;6.55;;;27.40;46.20;;;;;;6175328;28;81943;-68
2022/10/31 12:29:00;;;;;;;16.55;6.80;;;27.50;46.30;;;;;;6163107;28;80732;-60
2022/10/31 12:32:01;;;;;;;14.25;5.95;;;27.60;46.30;;;;;;6180818;28;81962;-59
2022/10/31 12:35:01;;;;;;;18.13;7.10;;;27.60;46.30;;;;;;6173644;28;80541;-60
2022/10/31 12:38:02;;;;;;;21.92;8.00;;;27.60;46.40;;;;;;6178066;28;80493;-59
2022/10/31 12:41:02;;;;;;;17.25;6.45;;;27.50;46.50;;;;;;6188326;28;80338;-58
2022/10/31 12:44:04;;;;;;;20.33;6.75;;;27.50;46.70;;;;;;6172666;28;80694;-58
2022/10/31 12:47:05;;;;;;;15.55;7.13;;;27.50;46.90;;;;;;6148316;28;83750;-59
2022/10/31 12:50:05;;;;;;;15.25;7.68;;;27.50;46.40;;;;;;6181496;28;82038;-60
2022/10/31 12:53:06;;;;;;;19.75;8.15;;;27.60;46.70;;;;;;6193725;28;80414;-58
2022/10/31 12:56:06;;;;;;;18.88;6.78;;;27.50;46.50;;;;;;6180008;28;84864;-59
2022/10/31 12:59:07;;;;;;;12.07;7.07;;;27.50;46.80;;;;;;6185073;28;82092;-59
2022/10/31 13:02:07;;;;;;;17.90;7.63;;;27.50;46.60;;;;;;6171136;28;86044;-59
2022/10/31 13:05:08;;;;;;;14.18;7.35;;;27.40;46.80;;;;;;6190755;28;80876;-51
2022/10/31 13:08:08;;;;;;;12.68;6.88;;;27.50;47.10;;;;;;6182809;28;80406;-51
2022/10/31 13:11:09;;;;;;;16.30;7.32;;;27.40;47.20;;;;;;6194738;28;81009;-49
2022/10/31 13:14:09;;;;;;;16.25;6.07;;;27.50;46.60;;;;;;6176045;28;80385;-52
2022/10/31 13:17:10;;;;;;;20.75;6.70;;;27.60;46.60;;;;;;6179293;28;80105;-54
2022/10/31 13:20:10;;;;;;;16.77;7.30;;;27.70;46.50;;;;;;6187864;28;81147;-54
2022/10/31 13:23:11;;;;;;;19.73;7.45;;;27.60;46.90;;;;;;6163712;28;80863;-60
2022/10/31 13:26:11;;;;;;;13.88;7.15;;;27.60;46.90;;;;;;6177602;28;83063;-67
2022/10/31 13:29:12;;;;;;;12.88;7.07;;;27.60;46.80;;;;;;6197545;28;80568;-67
2022/10/31 13:32:12;;;;;;;12.75;6.80;;;27.50;46.70;;;;;;6197262;28;84844;-68
2022/10/31 13:35:13;;;;;;;20.58;7.05;;;27.50;46.70;;;;;;6178982;28;80775;-69
2022/10/31 13:38:14;;;;;;;16.58;6.97;;;27.50;46.80;;;;;;6159102;28;81914;-68
2022/10/31 13:41:14;;;;;;;21.50;8.05;;;27.50;46.70;;;;;;6168024;28;82802;-66
2022/10/31 13:44:15;;;;;;;12.50;7.13;;;27.50;46.10;;;;;;6172080;28;80582;-65
2022/10/31 13:47:15;;;;;;;17.27;7.47;;;27.50;46.00;;;;;;6166600;28;80880;-65
2022/10/31 13:50:16;;;;;;;17.42;7.25;;;27.40;46.20;;;;;;6189605;28;86591;-65
2022/10/31 13:53:16;;;;;;;14.43;7.32;;;27.40;46.60;;;;;;6167100;28;80814;-63
2022/10/31 13:56:17;;;;;;;13.27;6.43;;;27.30;46.70;;;;;;6168512;28;80544;-62
2022/10/31 13:59:19;;;;;;;15.48;6.85;;;27.30;46.80;;;;;;6164511;28;84500;-63
2022/10/31 14:02:20;;;;;;;17.30;8.18;;;27.30;46.70;;;;;;6170981;28;80168;-56
2022/10/31 14:05:20;;;;;;;18.70;8.10;;;27.30;46.90;;;;;;6176205;28;80965;-63
2022/10/31 14:08:21;;;;;;;18.35;7.57;;;27.20;46.80;;;;;;6175203;28;81591;-59
2022/10/31 14:11:21;;;;;;;17.35;7.57;;;27.20;46.90;;;;;;6176337;28;80548;-59
2022/10/31 14:14:22;;;;;;;19.83;7.60;;;27.20;46.40;;;;;;6171825;28;80902;-55
2022/10/31 14:17:22;;;;;;;16.38;7.47;;;27.20;46.30;;;;;;6172296;28;80525;-58
2022/10/31 14:20:23;;;;;;;20.80;8.07;;;27.20;46.20;;;;;;6174141;28;80406;-58
2022/10/31 14:23:23;;;;;;;16.10;8.38;;;27.10;46.20;;;;;;6168990;28;81020;-59
2022/10/31 14:26:26;;;;;;;21.33;8.48;;;27.10;46.20;;;;;;6138131;28;82590;-58
2022/10/31 14:29:26;;;;;;;18.48;7.88;;;27.10;46.20;;;;;;6159235;28;80674;-57
2022/10/31 14:32:27;;;;;;;18.92;8.50;;;27.00;46.60;;;;;;6183342;28;80641;-58
2022/10/31 14:35:27;;;;;;;23.05;7.85;;;27.00;46.50;;;;;;6196449;28;80908;-58
2022/10/31 14:38:28;;;;;;;18.92;8.30;;;26.80;46.50;;;;;;6185689;28;80373;-62
2022/10/31 14:41:28;;;;;;;18.02;7.88;;;26.80;46.80;;;;;;6188399;28;84862;-65
2022/10/31 14:44:29;;;;;;;20.15;8.90;;;26.70;47.20;;;;;;6175390;28;86578;-64
2022/10/31 14:47:29;;;;;;;25.45;7.90;;;26.70;47.00;;;;;;6175117;28;80449;-62
2022/10/31 14:50:30;;;;;;;20.85;7.25;;;26.60;47.50;;;;;;6182682;28;82448;-65
2022/10/31 14:53:30;;;;;;;27.08;8.13;;;26.60;48.30;;;;;;6169024;28;82269;-61
2022/10/31 14:56:31;;;;;;;25.65;9.98;;;26.70;48.40;;;;;;6159878;28;80474;-56
2022/10/31 14:59:31;;;;;;;29.80;10.45;;;26.60;48.50;;;;;;6167068;28;84257;-58
2022/10/31 15:02:34;;;;;;;20.45;10.40;;;26.40;48.80;;;;;;6178000;28;85878;-58
2022/10/31 15:05:35;;;;;;;28.42;9.40;;;26.20;48.60;;;;;;6169148;28;83322;-59
2022/10/31 15:08:35;;;;;;;19.92;8.52;;;26.10;48.80;;;;;;6172547;28;84885;-58
2022/10/31 15:11:36;;;;;;;25.58;11.85;;;26.10;48.90;;;;;;6179179;28;83025;-58
2022/10/31 15:14:36;;;;;;;26.40;10.75;;;26.00;48.80;;;;;;6154447;28;86508;-60
2022/10/31 15:17:37;;;;;;;24.73;9.57;;;26.10;48.90;;;;;;6162731;28;86126;-56
2022/10/31 15:20:37;;;;;;;20.83;8.27;;;26.10;48.80;;;;;;6169819;28;83748;-58
2022/10/31 15:23:38;;;;;;;20.42;8.88;;;26.10;48.70;;;;;;6169237;28;80496;-59
2022/10/31 15:26:40;;;;;;;19.83;9.07;;;26.10;48.90;;;;;;6169154;28;81402;-59
2022/10/31 15:29:41;;;;;;;25.17;9.50;;;26.10;48.80;;;;;;6171618;28;84595;-58
2022/10/31 15:32:41;;;;;;;22.98;9.52;;;26.10;48.70;;;;;;6170321;28;81848;-67
2022/10/31 15:35:41;;;;;;;21.02;9.88;;;26.10;48.80;;;;;;6171673;28;80507;-68